sensor_id;sensor_type;location;lat;lon;timestamp;temperature;humidity
14798;DHT22;7490;63.708;20.368;2023-09-08T00:01:55;11.40;99.90
14798;DHT22;7490;63.708;20.368;2023-09-08T00:04:21;11.40;99.90
14798;DHT22;7490;63.708;20.368;2023-09-08T00:06:48;11.40;99.90
14798;DHT22;7490;63.708;20.368;2023-09-08T00:09:14;11.50;99.90
14798;DHT22;7490;63.708;20.368;2023-09-08T00:11:39;11.50;99.90
14798;DHT22;7490;63.708;20.368;2023-09-08T00:14:05;11.50;99.90
14798;DHT22;7490;63.708;20.368;2023-09-08T00:16:31;11.60;99.90
14798;DHT22;7490;63.708;20.368;2023-09-08T00:18:57;11.60;99.90
14798;DHT22;7490;63.708;20.368;2023-09-08T00:21:26;11.70;99.90
14798;DHT22;7490;63.708;20.368;2023-09-08T00:23:53;11.70;99.90
14798;DHT22;7490;63.708;20.368;2023-09-08T00:26:19;11.70;99.90
14798;DHT22;7490;63.708;20.368;2023-09-08T00:28:44;11.80;99.90
14798;DHT22;7490;63.708;20.368;2023-09-08T00:31:10;11.80;99.90
14798;DHT22;7490;63.708;20.368;2023-09-08T00:33:36;11.80;99.90
14798;DHT22;7490;63.708;20.368;2023-09-08T00:36:02;11.90;99.90
14798;DHT22;7490;63.708;20.368;2023-09-08T00:38:28;11.90;99.90
14798;DHT22;7490;63.708;20.368;2023-09-08T00:40:54;11.90;99.90
14798;DHT22;7490;63.708;20.368;2023-09-08T00:43:19;11.90;99.90
14798;DHT22;7490;63.708;20.368;2023-09-08T00:45:45;11.90;99.90
14798;DHT22;7490;63.708;20.368;2023-09-08T00:48:11;11.90;99.90
14798;DHT22;7490;63.708;20.368;2023-09-08T00:50:38;11.90;99.90
14798;DHT22;7490;63.708;20.368;2023-09-08T00:53:05;12.00;99.90
14798;DHT22;7490;63.708;20.368;2023-09-08T00:55:31;12.00;99.90
14798;DHT22;7490;63.708;20.368;2023-09-08T00:57:58;12.00;99.90
14798;DHT22;7490;63.708;20.368;2023-09-08T01:00:27;12.00;99.90
14798;DHT22;7490;63.708;20.368;2023-09-08T01:02:53;12.10;99.90
14798;DHT22;7490;63.708;20.368;2023-09-08T01:05:19;12.10;99.90
14798;DHT22;7490;63.708;20.368;2023-09-08T01:07:47;12.10;99.90
14798;DHT22;7490;63.708;20.368;2023-09-08T01:10:14;12.10;99.90
14798;DHT22;7490;63.708;20.368;2023-09-08T01:12:41;12.10;99.90
14798;DHT22;7490;63.708;20.368;2023-09-08T01:15:07;12.10;99.90
14798;DHT22;7490;63.708;20.368;2023-09-08T01:17:33;12.20;99.90
14798;DHT22;7490;63.708;20.368;2023-09-08T01:23:03;12.20;99.90
14798;DHT22;7490;63.708;20.368;2023-09-08T01:25:37;12.30;99.90
14798;DHT22;7490;63.708;20.368;2023-09-08T01:28:06;12.30;99.90
14798;DHT22;7490;63.708;20.368;2023-09-08T01:30:33;12.30;99.90
14798;DHT22;7490;63.708;20.368;2023-09-08T01:33:00;12.30;99.90
14798;DHT22;7490;63.708;20.368;2023-09-08T01:35:26;12.30;99.90
14798;DHT22;7490;63.708;20.368;2023-09-08T01:37:52;12.40;99.90
14798;DHT22;7490;63.708;20.368;2023-09-08T01:40:18;12.40;99.90
14798;DHT22;7490;63.708;20.368;2023-09-08T01:42:44;12.40;99.90
14798;DHT22;7490;63.708;20.368;2023-09-08T01:45:11;12.40;99.90
14798;DHT22;7490;63.708;20.368;2023-09-08T01:47:37;12.40;99.90
14798;DHT22;7490;63.708;20.368;2023-09-08T01:50:03;12.40;99.90
14798;DHT22;7490;63.708;20.368;2023-09-08T01:52:29;12.50;99.90
14798;DHT22;7490;63.708;20.368;2023-09-08T01:54:54;12.50;99.90
14798;DHT22;7490;63.708;20.368;2023-09-08T01:57:20;12.50;99.90
14798;DHT22;7490;63.708;20.368;2023-09-08T01:59:46;12.50;99.90
14798;DHT22;7490;63.708;20.368;2023-09-08T02:02:11;12.50;99.90
14798;DHT22;7490;63.708;20.368;2023-09-08T02:04:37;12.50;99.90
14798;DHT22;7490;63.708;20.368;2023-09-08T02:07:03;12.60;99.90
14798;DHT22;7490;63.708;20.368;2023-09-08T02:09:34;12.60;99.90
14798;DHT22;7490;63.708;20.368;2023-09-08T02:12:00;12.60;99.90
14798;DHT22;7490;63.708;20.368;2023-09-08T02:14:26;12.60;99.90
14798;DHT22;7490;63.708;20.368;2023-09-08T02:16:53;12.60;99.90
14798;DHT22;7490;63.708;20.368;2023-09-08T02:19:19;12.50;99.90
14798;DHT22;7490;63.708;20.368;2023-09-08T02:21:45;12.50;99.90
14798;DHT22;7490;63.708;20.368;2023-09-08T02:24:10;12.50;99.90
14798;DHT22;7490;63.708;20.368;2023-09-08T02:26:37;12.40;99.90
14798;DHT22;7490;63.708;20.368;2023-09-08T02:29:03;12.30;99.90
14798;DHT22;7490;63.708;20.368;2023-09-08T02:31:28;12.30;99.90
14798;DHT22;7490;63.708;20.368;2023-09-08T02:33:54;12.20;99.90
14798;DHT22;7490;63.708;20.368;2023-09-08T02:36:20;12.20;99.90
14798;DHT22;7490;63.708;20.368;2023-09-08T02:38:52;12.10;99.90
14798;DHT22;7490;63.708;20.368;2023-09-08T02:41:18;12.00;99.90
14798;DHT22;7490;63.708;20.368;2023-09-08T02:43:44;12.00;99.90
14798;DHT22;7490;63.708;20.368;2023-09-08T02:46:09;12.00;99.90
14798;DHT22;7490;63.708;20.368;2023-09-08T02:48:35;11.90;99.90
14798;DHT22;7490;63.708;20.368;2023-09-08T02:51:01;11.90;99.90
14798;DHT22;7490;63.708;20.368;2023-09-08T02:53:27;11.90;99.90
14798;DHT22;7490;63.708;20.368;2023-09-08T02:55:57;11.90;99.90
14798;DHT22;7490;63.708;20.368;2023-09-08T02:58:24;11.90;99.90
14798;DHT22;7490;63.708;20.368;2023-09-08T03:00:49;11.90;99.90
14798;DHT22;7490;63.708;20.368;2023-09-08T03:03:17;11.90;99.90
14798;DHT22;7490;63.708;20.368;2023-09-08T03:05:43;11.90;99.90
14798;DHT22;7490;63.708;20.368;2023-09-08T03:08:09;11.90;99.90
14798;DHT22;7490;63.708;20.368;2023-09-08T03:10:35;11.90;99.90
14798;DHT22;7490;63.708;20.368;2023-09-08T03:13:01;11.90;99.90
14798;DHT22;7490;63.708;20.368;2023-09-08T03:15:27;12.00;99.90
14798;DHT22;7490;63.708;20.368;2023-09-08T03:17:57;12.00;99.90
14798;DHT22;7490;63.708;20.368;2023-09-08T03:20:24;12.00;99.90
14798;DHT22;7490;63.708;20.368;2023-09-08T03:22:51;12.00;99.90
14798;DHT22;7490;63.708;20.368;2023-09-08T03:25:17;12.00;99.90
14798;DHT22;7490;63.708;20.368;2023-09-08T03:27:43;12.00;99.90
14798;DHT22;7490;63.708;20.368;2023-09-08T03:30:09;12.00;99.90
14798;DHT22;7490;63.708;20.368;2023-09-08T03:32:35;11.90;99.90
14798;DHT22;7490;63.708;20.368;2023-09-08T03:35:01;11.90;99.90
14798;DHT22;7490;63.708;20.368;2023-09-08T03:37:26;11.90;99.90
14798;DHT22;7490;63.708;20.368;2023-09-08T03:39:52;11.80;99.90
14798;DHT22;7490;63.708;20.368;2023-09-08T03:42:18;11.80;99.90
14798;DHT22;7490;63.708;20.368;2023-09-08T03:44:44;11.80;99.90
14798;DHT22;7490;63.708;20.368;2023-09-08T03:47:10;11.70;99.90
14798;DHT22;7490;63.708;20.368;2023-09-08T03:49:35;11.70;99.90
14798;DHT22;7490;63.708;20.368;2023-09-08T03:52:01;11.70;99.90
14798;DHT22;7490;63.708;20.368;2023-09-08T03:54:27;11.70;99.90
14798;DHT22;7490;63.708;20.368;2023-09-08T03:56:52;11.70;99.90
14798;DHT22;7490;63.708;20.368;2023-09-08T03:59:18;11.70;99.90
14798;DHT22;7490;63.708;20.368;2023-09-08T04:01:43;11.70;99.90
14798;DHT22;7490;63.708;20.368;2023-09-08T04:04:09;11.70;99.90
14798;DHT22;7490;63.708;20.368;2023-09-08T04:06:35;11.70;99.90
14798;DHT22;7490;63.708;20.368;2023-09-08T04:09:00;11.80;99.90
14798;DHT22;7490;63.708;20.368;2023-09-08T04:11:26;11.80;99.90
14798;DHT22;7490;63.708;20.368;2023-09-08T04:13:52;11.90;99.90
14798;DHT22;7490;63.708;20.368;2023-09-08T04:16:18;11.90;99.90
14798;DHT22;7490;63.708;20.368;2023-09-08T04:18:43;12.00;99.90
14798;DHT22;7490;63.708;20.368;2023-09-08T04:21:10;12.10;99.90
14798;DHT22;7490;63.708;20.368;2023-09-08T04:23:35;12.30;99.90
14798;DHT22;7490;63.708;20.368;2023-09-08T04:26:01;12.60;99.90
14798;DHT22;7490;63.708;20.368;2023-09-08T04:28:27;12.80;99.90
14798;DHT22;7490;63.708;20.368;2023-09-08T04:30:53;12.90;99.90
14798;DHT22;7490;63.708;20.368;2023-09-08T04:33:19;12.90;99.90
14798;DHT22;7490;63.708;20.368;2023-09-08T04:35:44;13.00;99.90
14798;DHT22;7490;63.708;20.368;2023-09-08T04:38:10;13.10;99.90
14798;DHT22;7490;63.708;20.368;2023-09-08T04:40:39;13.20;99.90
14798;DHT22;7490;63.708;20.368;2023-09-08T04:43:05;13.50;99.90
14798;DHT22;7490;63.708;20.368;2023-09-08T04:45:31;13.90;99.90
14798;DHT22;7490;63.708;20.368;2023-09-08T04:47:56;14.50;99.90
14798;DHT22;7490;63.708;20.368;2023-09-08T04:50:22;15.10;99.90
14798;DHT22;7490;63.708;20.368;2023-09-08T04:52:47;15.90;99.90
14798;DHT22;7490;63.708;20.368;2023-09-08T04:55:13;16.70;99.90
14798;DHT22;7490;63.708;20.368;2023-09-08T04:57:39;17.50;99.90
14798;DHT22;7490;63.708;20.368;2023-09-08T05:00:05;18.20;99.90
14798;DHT22;7490;63.708;20.368;2023-09-08T05:02:31;18.80;99.90
14798;DHT22;7490;63.708;20.368;2023-09-08T05:04:57;19.40;99.90
14798;DHT22;7490;63.708;20.368;2023-09-08T05:07:23;19.90;99.90
14798;DHT22;7490;63.708;20.368;2023-09-08T05:09:49;20.50;99.90
14798;DHT22;7490;63.708;20.368;2023-09-08T05:12:15;21.00;99.90
14798;DHT22;7490;63.708;20.368;2023-09-08T05:14:40;21.40;99.90
14798;DHT22;7490;63.708;20.368;2023-09-08T05:17:06;21.80;99.90
14798;DHT22;7490;63.708;20.368;2023-09-08T05:19:32;22.30;99.90
14798;DHT22;7490;63.708;20.368;2023-09-08T05:21:58;22.70;99.90
14798;DHT22;7490;63.708;20.368;2023-09-08T05:24:23;23.20;99.90
14798;DHT22;7490;63.708;20.368;2023-09-08T05:26:51;23.60;99.90
14798;DHT22;7490;63.708;20.368;2023-09-08T05:29:16;24.00;99.90
14798;DHT22;7490;63.708;20.368;2023-09-08T05:31:42;24.50;99.50
14798;DHT22;7490;63.708;20.368;2023-09-08T05:34:08;24.90;97.10
14798;DHT22;7490;63.708;20.368;2023-09-08T05:36:34;25.30;95.10
14798;DHT22;7490;63.708;20.368;2023-09-08T05:39:05;25.80;93.30
14798;DHT22;7490;63.708;20.368;2023-09-08T05:41:30;26.20;91.60
14798;DHT22;7490;63.708;20.368;2023-09-08T05:43:57;26.60;90.00
14798;DHT22;7490;63.708;20.368;2023-09-08T05:46:23;27.00;86.20
14798;DHT22;7490;63.708;20.368;2023-09-08T05:48:49;27.30;82.40
14798;DHT22;7490;63.708;20.368;2023-09-08T05:51:14;27.60;79.20
14798;DHT22;7490;63.708;20.368;2023-09-08T05:53:40;27.90;76.30
14798;DHT22;7490;63.708;20.368;2023-09-08T05:56:07;28.20;73.60
14798;DHT22;7490;63.708;20.368;2023-09-08T05:58:33;28.50;71.00
14798;DHT22;7490;63.708;20.368;2023-09-08T06:01:00;28.80;68.30
14798;DHT22;7490;63.708;20.368;2023-09-08T06:03:26;29.10;66.00
14798;DHT22;7490;63.708;20.368;2023-09-08T06:05:52;29.50;64.30
14798;DHT22;7490;63.708;20.368;2023-09-08T06:08:17;29.70;61.60
14798;DHT22;7490;63.708;20.368;2023-09-08T06:10:43;30.00;60.20
14798;DHT22;7490;63.708;20.368;2023-09-08T06:13:09;30.30;59.10
14798;DHT22;7490;63.708;20.368;2023-09-08T06:15:35;30.60;57.80
14798;DHT22;7490;63.708;20.368;2023-09-08T06:18:01;30.70;56.50
14798;DHT22;7490;63.708;20.368;2023-09-08T06:20:27;30.90;56.00
14798;DHT22;7490;63.708;20.368;2023-09-08T06:22:52;31.10;55.40
14798;DHT22;7490;63.708;20.368;2023-09-08T06:25:18;31.40;54.70
14798;DHT22;7490;63.708;20.368;2023-09-08T06:27:44;31.70;53.30
14798;DHT22;7490;63.708;20.368;2023-09-08T06:30:10;31.80;52.30
14798;DHT22;7490;63.708;20.368;2023-09-08T06:32:38;31.80;51.70
14798;DHT22;7490;63.708;20.368;2023-09-08T06:35:04;32.00;51.90
14798;DHT22;7490;63.708;20.368;2023-09-08T06:37:35;32.20;51.10
14798;DHT22;7490;63.708;20.368;2023-09-08T06:40:01;32.60;50.40
14798;DHT22;7490;63.708;20.368;2023-09-08T06:42:27;32.70;49.80
14798;DHT22;7490;63.708;20.368;2023-09-08T06:44:52;32.60;49.10
14798;DHT22;7490;63.708;20.368;2023-09-08T06:47:18;32.60;49.30
14798;DHT22;7490;63.708;20.368;2023-09-08T06:49:44;32.80;49.00
14798;DHT22;7490;63.708;20.368;2023-09-08T06:52:09;33.00;48.80
14798;DHT22;7490;63.708;20.368;2023-09-08T06:54:35;33.30;48.00
14798;DHT22;7490;63.708;20.368;2023-09-08T06:57:00;33.50;47.60
14798;DHT22;7490;63.708;20.368;2023-09-08T06:59:26;33.70;46.40
14798;DHT22;7490;63.708;20.368;2023-09-08T07:01:52;33.60;45.70
14798;DHT22;7490;63.708;20.368;2023-09-08T07:04:17;33.30;46.30
14798;DHT22;7490;63.708;20.368;2023-09-08T07:06:43;33.20;46.50
14798;DHT22;7490;63.708;20.368;2023-09-08T07:09:10;33.40;46.80
14798;DHT22;7490;63.708;20.368;2023-09-08T07:11:35;33.80;46.50
14798;DHT22;7490;63.708;20.368;2023-09-08T07:14:01;34.10;45.50
14798;DHT22;7490;63.708;20.368;2023-09-08T07:16:27;34.30;45.40
14798;DHT22;7490;63.708;20.368;2023-09-08T07:18:53;34.60;44.70
14798;DHT22;7490;63.708;20.368;2023-09-08T07:21:19;34.80;44.50
14798;DHT22;7490;63.708;20.368;2023-09-08T07:23:45;35.10;44.60
14798;DHT22;7490;63.708;20.368;2023-09-08T07:26:10;35.30;43.60
14798;DHT22;7490;63.708;20.368;2023-09-08T07:28:36;35.40;43.60
14798;DHT22;7490;63.708;20.368;2023-09-08T07:31:03;35.60;43.20
14798;DHT22;7490;63.708;20.368;2023-09-08T07:33:29;35.70;43.00
14798;DHT22;7490;63.708;20.368;2023-09-08T07:35:54;35.90;42.80
14798;DHT22;7490;63.708;20.368;2023-09-08T07:38:20;36.00;42.10
14798;DHT22;7490;63.708;20.368;2023-09-08T07:40:45;36.00;41.70
14798;DHT22;7490;63.708;20.368;2023-09-08T07:43:11;36.00;42.10
14798;DHT22;7490;63.708;20.368;2023-09-08T07:45:37;35.80;41.80
14798;DHT22;7490;63.708;20.368;2023-09-08T07:48:02;35.90;42.00
14798;DHT22;7490;63.708;20.368;2023-09-08T07:50:28;36.00;42.10
14798;DHT22;7490;63.708;20.368;2023-09-08T07:52:56;36.10;41.70
14798;DHT22;7490;63.708;20.368;2023-09-08T07:55:23;36.20;41.60
14798;DHT22;7490;63.708;20.368;2023-09-08T07:57:50;36.20;41.30
14798;DHT22;7490;63.708;20.368;2023-09-08T08:00:16;36.20;40.70
14798;DHT22;7490;63.708;20.368;2023-09-08T08:02:47;35.80;40.50
14798;DHT22;7490;63.708;20.368;2023-09-08T08:05:13;35.40;41.40
14798;DHT22;7490;63.708;20.368;2023-09-08T08:07:39;35.30;41.80
14798;DHT22;7490;63.708;20.368;2023-09-08T08:10:06;35.50;42.00
14798;DHT22;7490;63.708;20.368;2023-09-08T08:12:32;35.60;41.90
14798;DHT22;7490;63.708;20.368;2023-09-08T08:14:58;35.80;42.00
14798;DHT22;7490;63.708;20.368;2023-09-08T08:17:26;35.90;41.50
14798;DHT22;7490;63.708;20.368;2023-09-08T08:19:54;35.70;41.20
14798;DHT22;7490;63.708;20.368;2023-09-08T08:22:20;35.50;41.80
14798;DHT22;7490;63.708;20.368;2023-09-08T08:24:46;35.40;41.90
14798;DHT22;7490;63.708;20.368;2023-09-08T08:27:11;35.40;41.50
14798;DHT22;7490;63.708;20.368;2023-09-08T08:29:38;35.70;42.10
14798;DHT22;7490;63.708;20.368;2023-09-08T08:32:04;36.10;41.90
14798;DHT22;7490;63.708;20.368;2023-09-08T08:34:29;36.40;41.60
14798;DHT22;7490;63.708;20.368;2023-09-08T08:36:55;36.80;42.10
14798;DHT22;7490;63.708;20.368;2023-09-08T08:39:21;37.10;40.90
14798;DHT22;7490;63.708;20.368;2023-09-08T08:41:46;37.30;40.40
14798;DHT22;7490;63.708;20.368;2023-09-08T08:44:13;37.40;39.60
14798;DHT22;7490;63.708;20.368;2023-09-08T08:46:41;37.30;39.40
14798;DHT22;7490;63.708;20.368;2023-09-08T08:49:08;37.20;39.30
14798;DHT22;7490;63.708;20.368;2023-09-08T08:51:35;37.20;40.00
14798;DHT22;7490;63.708;20.368;2023-09-08T08:54:02;37.10;40.10
14798;DHT22;7490;63.708;20.368;2023-09-08T08:56:31;37.00;39.20
14798;DHT22;7490;63.708;20.368;2023-09-08T08:58:58;36.80;39.10
14798;DHT22;7490;63.708;20.368;2023-09-08T09:01:24;36.80;39.30
14798;DHT22;7490;63.708;20.368;2023-09-08T09:03:51;36.80;39.80
14798;DHT22;7490;63.708;20.368;2023-09-08T09:06:18;36.40;40.50
14798;DHT22;7490;63.708;20.368;2023-09-08T09:08:44;36.00;41.30
14798;DHT22;7490;63.708;20.368;2023-09-08T09:11:10;35.60;42.00
14798;DHT22;7490;63.708;20.368;2023-09-08T09:13:37;35.30;42.50
14798;DHT22;7490;63.708;20.368;2023-09-08T09:16:02;34.90;42.60
14798;DHT22;7490;63.708;20.368;2023-09-08T09:18:32;34.60;42.90
14798;DHT22;7490;63.708;20.368;2023-09-08T09:21:01;34.20;43.40
14798;DHT22;7490;63.708;20.368;2023-09-08T09:23:33;33.80;44.40
14798;DHT22;7490;63.708;20.368;2023-09-08T09:26:00;33.40;44.80
14798;DHT22;7490;63.708;20.368;2023-09-08T09:28:28;33.10;45.20
14798;DHT22;7490;63.708;20.368;2023-09-08T09:30:54;32.70;45.50
14798;DHT22;7490;63.708;20.368;2023-09-08T09:33:21;32.50;45.80
14798;DHT22;7490;63.708;20.368;2023-09-08T09:35:49;32.30;46.00
14798;DHT22;7490;63.708;20.368;2023-09-08T09:38:19;32.40;46.70
14798;DHT22;7490;63.708;20.368;2023-09-08T09:40:46;32.70;46.50
14798;DHT22;7490;63.708;20.368;2023-09-08T09:43:13;33.10;46.00
14798;DHT22;7490;63.708;20.368;2023-09-08T09:45:40;33.50;45.60
14798;DHT22;7490;63.708;20.368;2023-09-08T09:48:07;33.80;45.10
14798;DHT22;7490;63.708;20.368;2023-09-08T09:50:35;34.00;44.20
14798;DHT22;7490;63.708;20.368;2023-09-08T09:53:08;34.00;44.00
14798;DHT22;7490;63.708;20.368;2023-09-08T09:55:33;34.10;43.90
14798;DHT22;7490;63.708;20.368;2023-09-08T09:58:03;34.10;43.80
14798;DHT22;7490;63.708;20.368;2023-09-08T10:00:32;33.80;43.80
14798;DHT22;7490;63.708;20.368;2023-09-08T10:02:58;33.20;44.70
14798;DHT22;7490;63.708;20.368;2023-09-08T10:05:24;32.90;46.10
14798;DHT22;7490;63.708;20.368;2023-09-08T10:07:51;32.80;46.80
14798;DHT22;7490;63.708;20.368;2023-09-08T10:10:18;32.60;47.10
14798;DHT22;7490;63.708;20.368;2023-09-08T10:12:45;32.50;47.50
14798;DHT22;7490;63.708;20.368;2023-09-08T10:15:12;32.20;47.80
14798;DHT22;7490;63.708;20.368;2023-09-08T10:17:43;31.80;48.20
14798;DHT22;7490;63.708;20.368;2023-09-08T10:20:11;31.30;48.90
14798;DHT22;7490;63.708;20.368;2023-09-08T10:22:42;30.80;49.80
14798;DHT22;7490;63.708;20.368;2023-09-08T10:25:09;30.60;51.00
14798;DHT22;7490;63.708;20.368;2023-09-08T10:27:37;30.50;51.30
14798;DHT22;7490;63.708;20.368;2023-09-08T10:30:04;30.70;52.20
14798;DHT22;7490;63.708;20.368;2023-09-08T10:32:32;30.90;51.60
14798;DHT22;7490;63.708;20.368;2023-09-08T10:35:00;31.00;51.40
14798;DHT22;7490;63.708;20.368;2023-09-08T10:37:26;31.00;51.50
14798;DHT22;7490;63.708;20.368;2023-09-08T10:39:56;31.00;51.10
14798;DHT22;7490;63.708;20.368;2023-09-08T10:42:23;30.90;50.70
14798;DHT22;7490;63.708;20.368;2023-09-08T10:45:01;30.80;50.70
14798;DHT22;7490;63.708;20.368;2023-09-08T10:49:59;30.40;51.10
14798;DHT22;7490;63.708;20.368;2023-09-08T10:52:25;30.40;51.50
14798;DHT22;7490;63.708;20.368;2023-09-08T10:54:53;30.40;51.60
14798;DHT22;7490;63.708;20.368;2023-09-08T10:57:24;30.20;51.30
14798;DHT22;7490;63.708;20.368;2023-09-08T10:59:53;30.00;51.80
14798;DHT22;7490;63.708;20.368;2023-09-08T11:05:15;29.90;52.70
14798;DHT22;7490;63.708;20.368;2023-09-08T11:07:44;29.80;52.50
14798;DHT22;7490;63.708;20.368;2023-09-08T11:10:12;29.50;52.70
14798;DHT22;7490;63.708;20.368;2023-09-08T11:12:38;29.20;53.60
14798;DHT22;7490;63.708;20.368;2023-09-08T11:15:05;28.90;53.90
14798;DHT22;7490;63.708;20.368;2023-09-08T11:17:36;28.60;54.60
14798;DHT22;7490;63.708;20.368;2023-09-08T11:20:05;28.00;55.00
14798;DHT22;7490;63.708;20.368;2023-09-08T11:22:35;27.30;56.20
14798;DHT22;7490;63.708;20.368;2023-09-08T11:25:02;26.50;57.50
14798;DHT22;7490;63.708;20.368;2023-09-08T11:27:30;25.90;58.80
14798;DHT22;7490;63.708;20.368;2023-09-08T11:29:57;25.30;60.30
14798;DHT22;7490;63.708;20.368;2023-09-08T11:32:23;24.90;61.90
14798;DHT22;7490;63.708;20.368;2023-09-08T11:34:49;24.40;63.70
14798;DHT22;7490;63.708;20.368;2023-09-08T11:37:16;24.10;65.10
14798;DHT22;7490;63.708;20.368;2023-09-08T11:39:46;23.90;66.00
14798;DHT22;7490;63.708;20.368;2023-09-08T11:42:14;23.70;67.10
14798;DHT22;7490;63.708;20.368;2023-09-08T11:44:41;23.60;67.90
14798;DHT22;7490;63.708;20.368;2023-09-08T11:47:07;23.40;68.70
14798;DHT22;7490;63.708;20.368;2023-09-08T11:52:01;23.20;70.80
14798;DHT22;7490;63.708;20.368;2023-09-08T11:54:28;23.10;71.60
14798;DHT22;7490;63.708;20.368;2023-09-08T11:56:54;23.10;71.90
14798;DHT22;7490;63.708;20.368;2023-09-08T11:59:21;23.10;72.50
14798;DHT22;7490;63.708;20.368;2023-09-08T12:01:47;23.10;73.00
14798;DHT22;7490;63.708;20.368;2023-09-08T12:04:20;23.00;73.40
14798;DHT22;7490;63.708;20.368;2023-09-08T12:06:47;23.10;73.90
14798;DHT22;7490;63.708;20.368;2023-09-08T12:09:14;23.00;74.20
14798;DHT22;7490;63.708;20.368;2023-09-08T12:11:39;23.10;74.50
14798;DHT22;7490;63.708;20.368;2023-09-08T12:14:12;23.10;74.60
14798;DHT22;7490;63.708;20.368;2023-09-08T12:16:38;23.10;74.60
14798;DHT22;7490;63.708;20.368;2023-09-08T12:19:05;23.10;75.00
14798;DHT22;7490;63.708;20.368;2023-09-08T12:21:31;23.10;75.10
14798;DHT22;7490;63.708;20.368;2023-09-08T12:23:58;23.10;75.50
14798;DHT22;7490;63.708;20.368;2023-09-08T12:26:26;23.10;75.90
14798;DHT22;7490;63.708;20.368;2023-09-08T12:28:52;23.20;76.70
14798;DHT22;7490;63.708;20.368;2023-09-08T12:31:18;23.20;76.70
14798;DHT22;7490;63.708;20.368;2023-09-08T12:33:44;23.30;76.50
14798;DHT22;7490;63.708;20.368;2023-09-08T12:36:14;23.20;76.40
14798;DHT22;7490;63.708;20.368;2023-09-08T12:38:40;23.20;77.00
14798;DHT22;7490;63.708;20.368;2023-09-08T12:41:06;23.20;76.80
14798;DHT22;7490;63.708;20.368;2023-09-08T12:43:31;23.20;77.10
14798;DHT22;7490;63.708;20.368;2023-09-08T12:45:57;23.10;77.50
14798;DHT22;7490;63.708;20.368;2023-09-08T12:48:24;23.00;77.90
14798;DHT22;7490;63.708;20.368;2023-09-08T12:50:50;22.90;77.90
14798;DHT22;7490;63.708;20.368;2023-09-08T12:53:16;22.80;78.10
14798;DHT22;7490;63.708;20.368;2023-09-08T12:55:46;22.60;78.60
14798;DHT22;7490;63.708;20.368;2023-09-08T12:58:11;22.60;79.30
14798;DHT22;7490;63.708;20.368;2023-09-08T13:00:37;22.60;79.20
14798;DHT22;7490;63.708;20.368;2023-09-08T13:03:02;22.50;79.90
14798;DHT22;7490;63.708;20.368;2023-09-08T13:05:28;22.50;79.30
14798;DHT22;7490;63.708;20.368;2023-09-08T13:07:54;22.40;80.00
14798;DHT22;7490;63.708;20.368;2023-09-08T13:10:19;22.30;80.40
14798;DHT22;7490;63.708;20.368;2023-09-08T13:12:45;22.20;80.80
14798;DHT22;7490;63.708;20.368;2023-09-08T13:15:11;22.10;81.50
14798;DHT22;7490;63.708;20.368;2023-09-08T13:17:37;22.00;81.90
14798;DHT22;7490;63.708;20.368;2023-09-08T13:20:03;21.80;82.50
14798;DHT22;7490;63.708;20.368;2023-09-08T13:22:29;21.70;83.80
14798;DHT22;7490;63.708;20.368;2023-09-08T13:24:55;21.70;84.30
14798;DHT22;7490;63.708;20.368;2023-09-08T13:27:20;21.60;84.50
14798;DHT22;7490;63.708;20.368;2023-09-08T13:29:46;21.60;85.30
14798;DHT22;7490;63.708;20.368;2023-09-08T13:32:12;21.50;85.80
14798;DHT22;7490;63.708;20.368;2023-09-08T13:34:37;21.30;86.70
14798;DHT22;7490;63.708;20.368;2023-09-08T13:37:04;21.20;87.70
14798;DHT22;7490;63.708;20.368;2023-09-08T13:39:30;21.10;88.40
14798;DHT22;7490;63.708;20.368;2023-09-08T13:41:58;21.10;89.00
14798;DHT22;7490;63.708;20.368;2023-09-08T13:44:24;21.00;89.40
14798;DHT22;7490;63.708;20.368;2023-09-08T13:46:51;20.90;89.80
14798;DHT22;7490;63.708;20.368;2023-09-08T13:49:17;20.80;90.00
14798;DHT22;7490;63.708;20.368;2023-09-08T13:51:43;20.70;90.10
14798;DHT22;7490;63.708;20.368;2023-09-08T13:54:09;20.60;90.00
14798;DHT22;7490;63.708;20.368;2023-09-08T13:56:38;20.50;90.10
14798;DHT22;7490;63.708;20.368;2023-09-08T13:59:04;20.50;90.10
14798;DHT22;7490;63.708;20.368;2023-09-08T14:01:30;20.50;90.00
14798;DHT22;7490;63.708;20.368;2023-09-08T14:03:57;20.50;89.90
14798;DHT22;7490;63.708;20.368;2023-09-08T14:06:23;20.50;89.50
14798;DHT22;7490;63.708;20.368;2023-09-08T14:08:51;20.50;89.50
14798;DHT22;7490;63.708;20.368;2023-09-08T14:11:17;20.60;89.40
14798;DHT22;7490;63.708;20.368;2023-09-08T14:13:43;20.60;89.00
14798;DHT22;7490;63.708;20.368;2023-09-08T14:16:09;20.60;88.80
14798;DHT22;7490;63.708;20.368;2023-09-08T14:18:34;20.60;89.00
14798;DHT22;7490;63.708;20.368;2023-09-08T14:21:00;20.60;89.30
14798;DHT22;7490;63.708;20.368;2023-09-08T14:23:26;20.60;89.20
14798;DHT22;7490;63.708;20.368;2023-09-08T14:25:52;20.60;89.20
14798;DHT22;7490;63.708;20.368;2023-09-08T14:28:18;20.60;89.10
14798;DHT22;7490;63.708;20.368;2023-09-08T14:30:43;20.60;88.90
14798;DHT22;7490;63.708;20.368;2023-09-08T14:33:10;20.60;88.90
14798;DHT22;7490;63.708;20.368;2023-09-08T14:35:35;20.50;89.10
14798;DHT22;7490;63.708;20.368;2023-09-08T14:38:01;20.50;89.50
14798;DHT22;7490;63.708;20.368;2023-09-08T14:40:27;20.40;89.80
14798;DHT22;7490;63.708;20.368;2023-09-08T14:42:52;20.40;90.10
14798;DHT22;7490;63.708;20.368;2023-09-08T14:45:18;20.40;90.10
14798;DHT22;7490;63.708;20.368;2023-09-08T14:47:43;20.40;90.10
14798;DHT22;7490;63.708;20.368;2023-09-08T14:50:09;20.30;90.10
14798;DHT22;7490;63.708;20.368;2023-09-08T14:52:35;20.30;90.30
14798;DHT22;7490;63.708;20.368;2023-09-08T14:55:00;20.30;90.40
14798;DHT22;7490;63.708;20.368;2023-09-08T14:57:26;20.20;90.60
14798;DHT22;7490;63.708;20.368;2023-09-08T14:59:52;20.10;90.90
14798;DHT22;7490;63.708;20.368;2023-09-08T15:02:21;20.10;91.10
14798;DHT22;7490;63.708;20.368;2023-09-08T15:04:46;20.00;91.50
14798;DHT22;7490;63.708;20.368;2023-09-08T15:07:12;19.80;91.80
14798;DHT22;7490;63.708;20.368;2023-09-08T15:09:38;19.80;92.40
14798;DHT22;7490;63.708;20.368;2023-09-08T15:12:04;19.70;92.70
14798;DHT22;7490;63.708;20.368;2023-09-08T15:14:29;19.60;93.10
14798;DHT22;7490;63.708;20.368;2023-09-08T15:16:55;19.60;93.50
14798;DHT22;7490;63.708;20.368;2023-09-08T15:19:20;19.50;93.90
14798;DHT22;7490;63.708;20.368;2023-09-08T15:21:46;19.40;94.40
14798;DHT22;7490;63.708;20.368;2023-09-08T15:24:12;19.30;94.80
14798;DHT22;7490;63.708;20.368;2023-09-08T15:26:37;19.30;95.20
14798;DHT22;7490;63.708;20.368;2023-09-08T15:29:04;19.20;95.60
14798;DHT22;7490;63.708;20.368;2023-09-08T15:31:30;19.10;95.80
14798;DHT22;7490;63.708;20.368;2023-09-08T15:33:56;19.00;96.20
14798;DHT22;7490;63.708;20.368;2023-09-08T15:36:22;19.00;96.90